sensor_id;sensor_type;location;lat;lon;timestamp;temperature;humidity
57829;DHT22;43657;52.698;6.314;2023-02-05T00:00:19;4.70;99.90
57829;DHT22;43657;52.698;6.314;2023-02-05T00:02:45;4.70;99.90
57829;DHT22;43657;52.698;6.314;2023-02-05T00:05:11;4.70;99.90
57829;DHT22;43657;52.698;6.314;2023-02-05T00:07:37;4.80;99.90
57829;DHT22;43657;52.698;6.314;2023-02-05T00:10:03;4.80;99.90
57829;DHT22;43657;52.698;6.314;2023-02-05T00:12:28;4.80;99.90
57829;DHT22;43657;52.698;6.314;2023-02-05T00:14:54;4.80;99.90
57829;DHT22;43657;52.698;6.314;2023-02-05T00:17:20;4.80;99.90
57829;DHT22;43657;52.698;6.314;2023-02-05T00:19:45;4.80;99.90
57829;DHT22;43657;52.698;6.314;2023-02-05T00:22:11;4.80;99.90
57829;DHT22;43657;52.698;6.314;2023-02-05T00:24:36;4.80;99.90
57829;DHT22;43657;52.698;6.314;2023-02-05T00:27:02;4.80;99.90
57829;DHT22;43657;52.698;6.314;2023-02-05T00:29:27;4.90;99.90
57829;DHT22;43657;52.698;6.314;2023-02-05T00:31:53;4.90;99.90
57829;DHT22;43657;52.698;6.314;2023-02-05T00:34:19;4.90;99.90
57829;DHT22;43657;52.698;6.314;2023-02-05T00:36:44;4.90;99.90
57829;DHT22;43657;52.698;6.314;2023-02-05T00:39:10;5.00;99.90
57829;DHT22;43657;52.698;6.314;2023-02-05T00:41:38;5.00;99.90
57829;DHT22;43657;52.698;6.314;2023-02-05T00:44:04;5.00;99.90
57829;DHT22;43657;52.698;6.314;2023-02-05T00:46:30;5.00;99.90
57829;DHT22;43657;52.698;6.314;2023-02-05T00:48:55;5.00;99.90
57829;DHT22;43657;52.698;6.314;2023-02-05T00:51:21;5.00;99.90
57829;DHT22;43657;52.698;6.314;2023-02-05T00:53:46;5.00;99.90
57829;DHT22;43657;52.698;6.314;2023-02-05T00:56:12;5.10;99.90
57829;DHT22;43657;52.698;6.314;2023-02-05T00:58:38;5.10;99.90
57829;DHT22;43657;52.698;6.314;2023-02-05T01:01:03;5.10;99.90
57829;DHT22;43657;52.698;6.314;2023-02-05T01:03:29;5.10;99.90
57829;DHT22;43657;52.698;6.314;2023-02-05T01:05:55;5.10;99.90
57829;DHT22;43657;52.698;6.314;2023-02-05T01:08:22;5.20;99.90
57829;DHT22;43657;52.698;6.314;2023-02-05T01:10:48;5.10;99.90
57829;DHT22;43657;52.698;6.314;2023-02-05T01:13:15;5.20;99.90
57829;DHT22;43657;52.698;6.314;2023-02-05T01:15:40;5.20;99.90
57829;DHT22;43657;52.698;6.314;2023-02-05T01:18:06;5.20;99.90
57829;DHT22;43657;52.698;6.314;2023-02-05T01:20:35;5.20;99.90
57829;DHT22;43657;52.698;6.314;2023-02-05T01:23:00;5.20;99.90
57829;DHT22;43657;52.698;6.314;2023-02-05T01:25:26;5.20;99.90
57829;DHT22;43657;52.698;6.314;2023-02-05T01:27:51;5.20;99.90
57829;DHT22;43657;52.698;6.314;2023-02-05T01:30:17;5.20;99.90
57829;DHT22;43657;52.698;6.314;2023-02-05T01:32:42;5.20;99.90
57829;DHT22;43657;52.698;6.314;2023-02-05T01:35:08;5.20;99.90
57829;DHT22;43657;52.698;6.314;2023-02-05T01:37:34;5.30;99.90
57829;DHT22;43657;52.698;6.314;2023-02-05T01:39:59;5.30;99.90
57829;DHT22;43657;52.698;6.314;2023-02-05T01:42:28;5.30;99.90
57829;DHT22;43657;52.698;6.314;2023-02-05T01:48:01;5.30;99.90
57829;DHT22;43657;52.698;6.314;2023-02-05T01:53:04;5.30;99.90
57829;DHT22;43657;52.698;6.314;2023-02-05T01:55:30;5.30;99.90
57829;DHT22;43657;52.698;6.314;2023-02-05T01:57:57;5.30;99.90
57829;DHT22;43657;52.698;6.314;2023-02-05T02:00:24;5.40;99.90
57829;DHT22;43657;52.698;6.314;2023-02-05T02:02:50;5.40;99.90
57829;DHT22;43657;52.698;6.314;2023-02-05T02:05:16;5.40;99.90
57829;DHT22;43657;52.698;6.314;2023-02-05T02:07:42;5.40;99.90
57829;DHT22;43657;52.698;6.314;2023-02-05T02:10:10;5.40;99.90
57829;DHT22;43657;52.698;6.314;2023-02-05T02:12:39;5.40;99.90
57829;DHT22;43657;52.698;6.314;2023-02-05T02:15:10;5.40;99.90
57829;DHT22;43657;52.698;6.314;2023-02-05T02:17:38;5.40;99.90
57829;DHT22;43657;52.698;6.314;2023-02-05T02:20:16;5.40;99.90
57829;DHT22;43657;52.698;6.314;2023-02-05T02:28:13;5.40;99.90
57829;DHT22;43657;52.698;6.314;2023-02-05T02:30:51;5.40;99.90
57829;DHT22;43657;52.698;6.314;2023-02-05T02:36:55;5.50;99.90
57829;DHT22;43657;52.698;6.314;2023-02-05T02:39:19;5.50;99.90
57829;DHT22;43657;52.698;6.314;2023-02-05T02:41:51;5.50;99.90
57829;DHT22;43657;52.698;6.314;2023-02-05T02:44:41;5.50;99.90
57829;DHT22;43657;52.698;6.314;2023-02-05T02:47:16;5.60;99.90
57829;DHT22;43657;52.698;6.314;2023-02-05T02:49:59;5.60;99.90
57829;DHT22;43657;52.698;6.314;2023-02-05T02:52:32;5.70;99.90
57829;DHT22;43657;52.698;6.314;2023-02-05T02:54:59;5.70;99.90
57829;DHT22;43657;52.698;6.314;2023-02-05T02:57:30;5.70;99.90
57829;DHT22;43657;52.698;6.314;2023-02-05T03:00:00;5.80;99.90
57829;DHT22;43657;52.698;6.314;2023-02-05T03:02:30;5.80;99.90
57829;DHT22;43657;52.698;6.314;2023-02-05T03:05:16;5.90;99.90
57829;DHT22;43657;52.698;6.314;2023-02-05T03:07:50;5.90;99.90
57829;DHT22;43657;52.698;6.314;2023-02-05T03:10:35;5.90;99.90
57829;DHT22;43657;52.698;6.314;2023-02-05T03:13:06;5.90;99.90
57829;DHT22;43657;52.698;6.314;2023-02-05T03:15:32;5.90;99.90
57829;DHT22;43657;52.698;6.314;2023-02-05T03:17:57;5.90;99.90
57829;DHT22;43657;52.698;6.314;2023-02-05T03:20:26;5.90;99.90
57829;DHT22;43657;52.698;6.314;2023-02-05T03:22:54;5.90;99.90
57829;DHT22;43657;52.698;6.314;2023-02-05T03:25:21;5.90;99.90
57829;DHT22;43657;52.698;6.314;2023-02-05T03:27:50;5.90;99.90
57829;DHT22;43657;52.698;6.314;2023-02-05T03:30:17;5.90;99.90
57829;DHT22;43657;52.698;6.314;2023-02-05T03:35:40;5.90;99.90
57829;DHT22;43657;52.698;6.314;2023-02-05T03:38:29;5.90;99.90
57829;DHT22;43657;52.698;6.314;2023-02-05T03:44:15;5.90;99.90
57829;DHT22;43657;52.698;6.314;2023-02-05T03:46:47;6.00;99.90
57829;DHT22;43657;52.698;6.314;2023-02-05T03:52:13;6.00;99.90
57829;DHT22;43657;52.698;6.314;2023-02-05T03:57:38;6.00;99.90
57829;DHT22;43657;52.698;6.314;2023-02-05T04:00:07;6.00;99.90
57829;DHT22;43657;52.698;6.314;2023-02-05T04:02:33;6.00;99.90
57829;DHT22;43657;52.698;6.314;2023-02-05T04:04:59;6.00;99.90
57829;DHT22;43657;52.698;6.314;2023-02-05T04:07:25;6.00;99.90
57829;DHT22;43657;52.698;6.314;2023-02-05T04:09:50;6.00;99.90
57829;DHT22;43657;52.698;6.314;2023-02-05T04:12:16;6.10;99.90
57829;DHT22;43657;52.698;6.314;2023-02-05T04:14:41;6.00;99.90
57829;DHT22;43657;52.698;6.314;2023-02-05T04:17:10;6.00;99.90
57829;DHT22;43657;52.698;6.314;2023-02-05T04:19:35;6.00;99.90
57829;DHT22;43657;52.698;6.314;2023-02-05T04:22:01;6.10;99.90
57829;DHT22;43657;52.698;6.314;2023-02-05T04:24:27;6.10;99.90
57829;DHT22;43657;52.698;6.314;2023-02-05T04:26:53;6.10;99.90
57829;DHT22;43657;52.698;6.314;2023-02-05T04:29:19;6.10;99.90
57829;DHT22;43657;52.698;6.314;2023-02-05T04:31:44;6.10;99.90
57829;DHT22;43657;52.698;6.314;2023-02-05T04:34:10;6.20;99.90
57829;DHT22;43657;52.698;6.314;2023-02-05T04:36:36;6.10;99.90
57829;DHT22;43657;52.698;6.314;2023-02-05T04:39:02;6.10;99.90
57829;DHT22;43657;52.698;6.314;2023-02-05T04:41:28;6.10;99.90
57829;DHT22;43657;52.698;6.314;2023-02-05T04:43:54;6.20;99.90
57829;DHT22;43657;52.698;6.314;2023-02-05T04:46:20;6.20;99.90
57829;DHT22;43657;52.698;6.314;2023-02-05T04:48:46;6.20;99.90
57829;DHT22;43657;52.698;6.314;2023-02-05T04:51:12;6.20;99.90
57829;DHT22;43657;52.698;6.314;2023-02-05T04:53:39;6.20;99.90
57829;DHT22;43657;52.698;6.314;2023-02-05T04:58:30;6.20;99.90
57829;DHT22;43657;52.698;6.314;2023-02-05T05:00:56;6.20;99.90
57829;DHT22;43657;52.698;6.314;2023-02-05T05:03:21;6.20;99.90
57829;DHT22;43657;52.698;6.314;2023-02-05T05:05:47;6.30;99.90
57829;DHT22;43657;52.698;6.314;2023-02-05T05:08:13;6.30;99.90
57829;DHT22;43657;52.698;6.314;2023-02-05T05:10:38;6.30;99.90
57829;DHT22;43657;52.698;6.314;2023-02-05T05:13:06;6.30;99.90
57829;DHT22;43657;52.698;6.314;2023-02-05T05:15:32;6.30;99.90
57829;DHT22;43657;52.698;6.314;2023-02-05T05:17:58;6.30;99.90
57829;DHT22;43657;52.698;6.314;2023-02-05T05:20:23;6.30;99.90
57829;DHT22;43657;52.698;6.314;2023-02-05T05:22:49;6.40;99.90
57829;DHT22;43657;52.698;6.314;2023-02-05T05:25:15;6.30;99.90
57829;DHT22;43657;52.698;6.314;2023-02-05T05:27:40;6.30;99.90
57829;DHT22;43657;52.698;6.314;2023-02-05T05:30:06;6.30;99.90
57829;DHT22;43657;52.698;6.314;2023-02-05T05:32:32;6.40;99.90
57829;DHT22;43657;52.698;6.314;2023-02-05T05:34:58;6.30;99.90
57829;DHT22;43657;52.698;6.314;2023-02-05T05:37:23;6.30;99.90
57829;DHT22;43657;52.698;6.314;2023-02-05T05:39:49;6.40;99.90
57829;DHT22;43657;52.698;6.314;2023-02-05T05:42:33;6.30;99.90
57829;DHT22;43657;52.698;6.314;2023-02-05T05:45:17;6.30;99.90
57829;DHT22;43657;52.698;6.314;2023-02-05T05:47:43;6.30;99.90
57829;DHT22;43657;52.698;6.314;2023-02-05T05:50:08;6.30;99.90
57829;DHT22;43657;52.698;6.314;2023-02-05T05:52:34;6.40;99.90
57829;DHT22;43657;52.698;6.314;2023-02-05T05:55:00;6.40;99.90
57829;DHT22;43657;52.698;6.314;2023-02-05T05:57:25;6.40;99.90
57829;DHT22;43657;52.698;6.314;2023-02-05T05:59:51;6.30;99.90
57829;DHT22;43657;52.698;6.314;2023-02-05T06:02:17;6.20;99.90
57829;DHT22;43657;52.698;6.314;2023-02-05T06:04:42;6.10;99.90
57829;DHT22;43657;52.698;6.314;2023-02-05T06:07:08;6.20;99.90
57829;DHT22;43657;52.698;6.314;2023-02-05T06:09:34;6.00;99.90
57829;DHT22;43657;52.698;6.314;2023-02-05T06:11:59;6.00;99.90
57829;DHT22;43657;52.698;6.314;2023-02-05T06:14:25;5.90;99.90
57829;DHT22;43657;52.698;6.314;2023-02-05T06:16:51;5.80;99.90
57829;DHT22;43657;52.698;6.314;2023-02-05T06:19:19;5.80;99.90
57829;DHT22;43657;52.698;6.314;2023-02-05T06:21:45;5.70;99.90
57829;DHT22;43657;52.698;6.314;2023-02-05T06:24:10;5.70;99.90
57829;DHT22;43657;52.698;6.314;2023-02-05T06:26:36;5.70;99.90
57829;DHT22;43657;52.698;6.314;2023-02-05T06:29:02;5.70;99.90
57829;DHT22;43657;52.698;6.314;2023-02-05T06:31:29;5.60;99.90
57829;DHT22;43657;52.698;6.314;2023-02-05T06:33:55;5.50;99.90
57829;DHT22;43657;52.698;6.314;2023-02-05T06:36:20;5.60;99.90
57829;DHT22;43657;52.698;6.314;2023-02-05T06:38:46;5.50;99.90
57829;DHT22;43657;52.698;6.314;2023-02-05T06:41:11;5.50;99.90
57829;DHT22;43657;52.698;6.314;2023-02-05T06:43:37;5.50;99.90
57829;DHT22;43657;52.698;6.314;2023-02-05T06:46:03;5.50;99.90
57829;DHT22;43657;52.698;6.314;2023-02-05T06:48:28;5.50;99.90
57829;DHT22;43657;52.698;6.314;2023-02-05T06:50:54;5.50;99.90
57829;DHT22;43657;52.698;6.314;2023-02-05T06:53:19;5.50;99.90
57829;DHT22;43657;52.698;6.314;2023-02-05T06:55:45;5.50;99.90
57829;DHT22;43657;52.698;6.314;2023-02-05T06:58:11;5.50;99.90
57829;DHT22;43657;52.698;6.314;2023-02-05T07:00:36;5.40;99.90
57829;DHT22;43657;52.698;6.314;2023-02-05T07:03:02;5.40;99.90
57829;DHT22;43657;52.698;6.314;2023-02-05T07:05:28;5.40;99.90
57829;DHT22;43657;52.698;6.314;2023-02-05T07:07:54;5.40;99.90
57829;DHT22;43657;52.698;6.314;2023-02-05T07:10:19;5.40;99.90
57829;DHT22;43657;52.698;6.314;2023-02-05T07:12:45;5.40;99.90
57829;DHT22;43657;52.698;6.314;2023-02-05T07:15:11;5.40;99.90
57829;DHT22;43657;52.698;6.314;2023-02-05T07:17:36;5.40;99.90
57829;DHT22;43657;52.698;6.314;2023-02-05T07:20:04;5.40;99.90
57829;DHT22;43657;52.698;6.314;2023-02-05T07:22:30;5.40;99.90
57829;DHT22;43657;52.698;6.314;2023-02-05T07:24:55;5.50;99.90
57829;DHT22;43657;52.698;6.314;2023-02-05T07:27:22;5.50;99.90
57829;DHT22;43657;52.698;6.314;2023-02-05T07:29:48;5.50;99.90
57829;DHT22;43657;52.698;6.314;2023-02-05T07:32:14;5.40;99.90
57829;DHT22;43657;52.698;6.314;2023-02-05T07:34:40;5.50;99.90
57829;DHT22;43657;52.698;6.314;2023-02-05T07:37:05;5.50;99.90
57829;DHT22;43657;52.698;6.314;2023-02-05T07:39:31;5.50;99.90
57829;DHT22;43657;52.698;6.314;2023-02-05T07:41:59;5.50;99.90
57829;DHT22;43657;52.698;6.314;2023-02-05T07:44:24;5.50;99.90
57829;DHT22;43657;52.698;6.314;2023-02-05T07:46:50;5.50;99.90
57829;DHT22;43657;52.698;6.314;2023-02-05T07:49:16;5.60;99.90
57829;DHT22;43657;52.698;6.314;2023-02-05T07:51:42;5.60;99.90
57829;DHT22;43657;52.698;6.314;2023-02-05T07:54:08;5.60;99.90
57829;DHT22;43657;52.698;6.314;2023-02-05T07:56:34;5.60;99.90
57829;DHT22;43657;52.698;6.314;2023-02-05T07:59:01;5.60;99.90
57829;DHT22;43657;52.698;6.314;2023-02-05T08:01:27;5.60;99.90
57829;DHT22;43657;52.698;6.314;2023-02-05T08:03:54;5.60;99.90
57829;DHT22;43657;52.698;6.314;2023-02-05T08:06:19;5.70;99.90
57829;DHT22;43657;52.698;6.314;2023-02-05T08:08:45;5.70;99.90
57829;DHT22;43657;52.698;6.314;2023-02-05T08:11:15;5.70;99.90
57829;DHT22;43657;52.698;6.314;2023-02-05T08:13:41;5.70;99.90
57829;DHT22;43657;52.698;6.314;2023-02-05T08:16:07;5.70;99.90
57829;DHT22;43657;52.698;6.314;2023-02-05T08:18:33;5.80;99.90
57829;DHT22;43657;52.698;6.314;2023-02-05T08:20:59;5.80;99.90
57829;DHT22;43657;52.698;6.314;2023-02-05T08:23:25;5.90;99.90
57829;DHT22;43657;52.698;6.314;2023-02-05T08:25:55;5.80;99.90
57829;DHT22;43657;52.698;6.314;2023-02-05T08:28:22;5.90;99.90
57829;DHT22;43657;52.698;6.314;2023-02-05T08:30:48;5.90;99.90
57829;DHT22;43657;52.698;6.314;2023-02-05T08:33:14;5.90;99.90
57829;DHT22;43657;52.698;6.314;2023-02-05T08:35:39;5.90;99.90
57829;DHT22;43657;52.698;6.314;2023-02-05T08:38:05;5.90;99.90
57829;DHT22;43657;52.698;6.314;2023-02-05T08:40:31;5.90;99.90
57829;DHT22;43657;52.698;6.314;2023-02-05T08:42:57;6.00;99.90
57829;DHT22;43657;52.698;6.314;2023-02-05T08:45:27;6.00;99.90
57829;DHT22;43657;52.698;6.314;2023-02-05T08:48:12;6.00;99.90
57829;DHT22;43657;52.698;6.314;2023-02-05T08:50:43;6.00;99.90
57829;DHT22;43657;52.698;6.314;2023-02-05T08:53:24;6.10;99.90
57829;DHT22;43657;52.698;6.314;2023-02-05T08:56:04;6.10;99.90
57829;DHT22;43657;52.698;6.314;2023-02-05T08:58:31;6.20;99.90
57829;DHT22;43657;52.698;6.314;2023-02-05T09:01:01;6.20;99.90
57829;DHT22;43657;52.698;6.314;2023-02-05T09:03:28;6.20;99.90
57829;DHT22;43657;52.698;6.314;2023-02-05T09:05:58;6.20;99.90
57829;DHT22;43657;52.698;6.314;2023-02-05T09:08:25;6.30;99.90
57829;DHT22;43657;52.698;6.314;2023-02-05T09:10:51;6.30;99.90
57829;DHT22;43657;52.698;6.314;2023-02-05T09:13:17;6.40;99.90
57829;DHT22;43657;52.698;6.314;2023-02-05T09:15:45;6.40;99.90
57829;DHT22;43657;52.698;6.314;2023-02-05T09:18:11;6.40;99.90
57829;DHT22;43657;52.698;6.314;2023-02-05T09:20:44;6.50;99.90
57829;DHT22;43657;52.698;6.314;2023-02-05T09:23:11;6.50;99.90
57829;DHT22;43657;52.698;6.314;2023-02-05T09:25:38;6.50;99.90
57829;DHT22;43657;52.698;6.314;2023-02-05T09:28:05;6.50;99.90
57829;DHT22;43657;52.698;6.314;2023-02-05T09:30:39;6.60;99.90
57829;DHT22;43657;52.698;6.314;2023-02-05T09:33:05;6.60;99.90
57829;DHT22;43657;52.698;6.314;2023-02-05T09:35:34;6.60;99.90
57829;DHT22;43657;52.698;6.314;2023-02-05T09:38:03;6.70;99.90
57829;DHT22;43657;52.698;6.314;2023-02-05T09:40:41;6.70;99.90
57829;DHT22;43657;52.698;6.314;2023-02-05T09:46:00;6.80;99.90
57829;DHT22;43657;52.698;6.314;2023-02-05T09:48:35;6.90;99.90
57829;DHT22;43657;52.698;6.314;2023-02-05T09:51:09;7.00;99.90
57829;DHT22;43657;52.698;6.314;2023-02-05T09:53:40;7.10;99.90
57829;DHT22;43657;52.698;6.314;2023-02-05T09:56:08;7.00;99.90
57829;DHT22;43657;52.698;6.314;2023-02-05T09:58:42;7.10;99.90
57829;DHT22;43657;52.698;6.314;2023-02-05T10:03:43;7.10;99.90
57829;DHT22;43657;52.698;6.314;2023-02-05T10:16:55;7.20;99.90
57829;DHT22;43657;52.698;6.314;2023-02-05T10:22:56;7.20;99.90
57829;DHT22;43657;52.698;6.314;2023-02-05T10:31:16;7.50;99.90
57829;DHT22;43657;52.698;6.314;2023-02-05T10:33:47;7.70;99.90
57829;DHT22;43657;52.698;6.314;2023-02-05T10:36:15;7.90;99.90
57829;DHT22;43657;52.698;6.314;2023-02-05T10:38:45;8.20;99.90
57829;DHT22;43657;52.698;6.314;2023-02-05T10:46:38;8.60;99.90
57829;DHT22;43657;52.698;6.314;2023-02-05T10:52:12;8.50;99.90
57829;DHT22;43657;52.698;6.314;2023-02-05T10:54:38;8.40;99.90
57829;DHT22;43657;52.698;6.314;2023-02-05T10:57:14;8.20;99.90
57829;DHT22;43657;52.698;6.314;2023-02-05T11:00:02;8.10;99.90
57829;DHT22;43657;52.698;6.314;2023-02-05T11:02:37;8.10;99.90
57829;DHT22;43657;52.698;6.314;2023-02-05T11:07:43;8.00;99.90
57829;DHT22;43657;52.698;6.314;2023-02-05T11:10:24;7.90;99.90
57829;DHT22;43657;52.698;6.314;2023-02-05T11:12:53;7.80;99.90
57829;DHT22;43657;52.698;6.314;2023-02-05T11:15:25;7.60;99.90
57829;DHT22;43657;52.698;6.314;2023-02-05T11:18:20;7.40;99.90
57829;DHT22;43657;52.698;6.314;2023-02-05T11:20:39;7.30;99.90
57829;DHT22;43657;52.698;6.314;2023-02-05T11:26:00;7.50;99.90
57829;DHT22;43657;52.698;6.314;2023-02-05T11:28:33;7.70;99.90
57829;DHT22;43657;52.698;6.314;2023-02-05T11:31:32;8.00;99.90
57829;DHT22;43657;52.698;6.314;2023-02-05T11:36:32;8.10;99.90
57829;DHT22;43657;52.698;6.314;2023-02-05T11:38:58;8.10;99.90
57829;DHT22;43657;52.698;6.314;2023-02-05T11:41:35;8.10;99.90
57829;DHT22;43657;52.698;6.314;2023-02-05T11:46:46;8.40;99.90
57829;DHT22;43657;52.698;6.314;2023-02-05T11:49:20;8.70;99.90
57829;DHT22;43657;52.698;6.314;2023-02-05T11:51:49;9.00;99.90
57829;DHT22;43657;52.698;6.314;2023-02-05T11:54:24;9.40;99.90
57829;DHT22;43657;52.698;6.314;2023-02-05T11:59:38;9.70;99.90
57829;DHT22;43657;52.698;6.314;2023-02-05T12:07:48;9.50;99.90
57829;DHT22;43657;52.698;6.314;2023-02-05T12:10:23;9.30;99.90
57829;DHT22;43657;52.698;6.314;2023-02-05T12:16:06;9.40;99.90
57829;DHT22;43657;52.698;6.314;2023-02-05T12:21:37;9.60;99.90
57829;DHT22;43657;52.698;6.314;2023-02-05T12:26:57;9.10;99.90
57829;DHT22;43657;52.698;6.314;2023-02-05T12:35:39;8.60;99.90
57829;DHT22;43657;52.698;6.314;2023-02-05T12:43:41;8.50;99.90
57829;DHT22;43657;52.698;6.314;2023-02-05T12:46:28;8.60;99.90
57829;DHT22;43657;52.698;6.314;2023-02-05T12:57:52;9.30;99.90
57829;DHT22;43657;52.698;6.314;2023-02-05T13:00:22;9.30;99.90
57829;DHT22;43657;52.698;6.314;2023-02-05T13:05:45;9.70;99.90
57829;DHT22;43657;52.698;6.314;2023-02-05T13:11:20;9.40;99.90
57829;DHT22;43657;52.698;6.314;2023-02-05T13:14:01;9.50;99.90
57829;DHT22;43657;52.698;6.314;2023-02-05T13:16:45;9.50;99.90
57829;DHT22;43657;52.698;6.314;2023-02-05T13:19:17;9.40;99.90
57829;DHT22;43657;52.698;6.314;2023-02-05T13:21:47;9.40;99.90
57829;DHT22;43657;52.698;6.314;2023-02-05T13:24:37;9.20;99.90
57829;DHT22;43657;52.698;6.314;2023-02-05T13:27:37;9.10;99.90
57829;DHT22;43657;52.698;6.314;2023-02-05T13:30:46;9.20;99.90
57829;DHT22;43657;52.698;6.314;2023-02-05T13:33:14;9.20;99.90
57829;DHT22;43657;52.698;6.314;2023-02-05T13:36:00;9.10;99.90
57829;DHT22;43657;52.698;6.314;2023-02-05T13:49:36;8.80;99.90
57829;DHT22;43657;52.698;6.314;2023-02-05T13:52:48;8.80;99.90
57829;DHT22;43657;52.698;6.314;2023-02-05T13:55:35;8.70;99.90
57829;DHT22;43657;52.698;6.314;2023-02-05T13:58:14;8.60;99.90
57829;DHT22;43657;52.698;6.314;2023-02-05T14:00:59;8.60;99.90
57829;DHT22;43657;52.698;6.314;2023-02-05T14:03:30;8.50;99.90
57829;DHT22;43657;52.698;6.314;2023-02-05T14:06:10;8.50;99.90
57829;DHT22;43657;52.698;6.314;2023-02-05T14:08:37;8.50;99.90
57829;DHT22;43657;52.698;6.314;2023-02-05T14:11:04;8.40;99.90
57829;DHT22;43657;52.698;6.314;2023-02-05T14:13:33;8.40;99.90
57829;DHT22;43657;52.698;6.314;2023-02-05T14:16:31;8.30;99.90
57829;DHT22;43657;52.698;6.314;2023-02-05T14:24:00;8.30;99.90
57829;DHT22;43657;52.698;6.314;2023-02-05T14:26:46;8.30;99.90
57829;DHT22;43657;52.698;6.314;2023-02-05T14:29:38;8.40;99.90
57829;DHT22;43657;52.698;6.314;2023-02-05T14:32:08;8.40;99.90
57829;DHT22;43657;52.698;6.314;2023-02-05T14:36:59;8.30;99.90
57829;DHT22;43657;52.698;6.314;2023-02-05T14:39:28;8.30;99.90
57829;DHT22;43657;52.698;6.314;2023-02-05T14:41:57;8.30;99.90
57829;DHT22;43657;52.698;6.314;2023-02-05T14:47:25;8.30;99.90
57829;DHT22;43657;52.698;6.314;2023-02-05T14:49:59;8.30;99.90
57829;DHT22;43657;52.698;6.314;2023-02-05T14:52:36;8.20;99.90
57829;DHT22;43657;52.698;6.314;2023-02-05T14:57:48;8.10;99.90
57829;DHT22;43657;52.698;6.314;2023-02-05T15:00:34;8.10;99.90
57829;DHT22;43657;52.698;6.314;2023-02-05T15:13:13;7.90;99.90
57829;DHT22;43657;52.698;6.314;2023-02-05T15:15:39;7.80;99.90
57829;DHT22;43657;52.698;6.314;2023-02-05T15:20:34;7.80;99.90
57829;DHT22;43657;52.698;6.314;2023-02-05T15:23:03;7.70;99.90
57829;DHT22;43657;52.698;6.314;2023-02-05T15:25:36;7.60;99.90
57829;DHT22;43657;52.698;6.314;2023-02-05T15:28:07;7.70;99.90
57829;DHT22;43657;52.698;6.314;2023-02-05T15:30:50;7.70;99.90
57829;DHT22;43657;52.698;6.314;2023-02-05T15:33:31;7.70;99.90
57829;DHT22;43657;52.698;6.314;2023-02-05T15:35:59;7.70;99.90
57829;DHT22;43657;52.698;6.314;2023-02-05T15:38:35;7.60;99.90
57829;DHT22;43657;52.698;6.314;2023-02-05T15:41:05;7.60;99.90
57829;DHT22;43657;52.698;6.314;2023-02-05T15:43:32;7.50;99.90
57829;DHT22;43657;52.698;6.314;2023-02-05T15:46:03;7.50;99.90
57829;DHT22;43657;52.698;6.314;2023-02-05T15:48:32;7.50;99.90
57829;DHT22;43657;52.698;6.314;2023-02-05T15:51:12;7.50;99.90
57829;DHT22;43657;52.698;6.314;2023-02-05T15:53:47;7.40;99.90
57829;DHT22;43657;52.698;6.314;2023-02-05T15:56:16;7.40;99.90
57829;DHT22;43657;52.698;6.314;2023-02-05T16:01:33;7.40;99.90
57829;DHT22;43657;52.698;6.314;2023-02-05T16:04:00;7.30;99.90
57829;DHT22;43657;52.698;6.314;2023-02-05T16:06:27;7.30;99.90
57829;DHT22;43657;52.698;6.314;2023-02-05T16:08:54;7.20;99.90
57829;DHT22;43657;52.698;6.314;2023-02-05T16:11:29;7.20;99.90
57829;DHT22;43657;52.698;6.314;2023-02-05T16:14:25;7.10;99.90
57829;DHT22;43657;52.698;6.314;2023-02-05T16:17:16;7.10;99.90
57829;DHT22;43657;52.698;6.314;2023-02-05T16:20:00;7.00;99.90
57829;DHT22;43657;52.698;6.314;2023-02-05T16:22:36;7.00;99.90
57829;DHT22;43657;52.698;6.314;2023-02-05T16:25:21;6.90;99.90
57829;DHT22;43657;52.698;6.314;2023-02-05T16:27:51;6.90;99.90
57829;DHT22;43657;52.698;6.314;2023-02-05T16:30:32;6.80;99.90
57829;DHT22;43657;52.698;6.314;2023-02-05T16:33:00;6.80;99.90
57829;DHT22;43657;52.698;6.314;2023-02-05T16:35:40;6.80;99.90
57829;DHT22;43657;52.698;6.314;2023-02-05T16:38:14;6.70;99.90
57829;DHT22;43657;52.698;6.314;2023-02-05T16:40:43;6.70;99.90
57829;DHT22;43657;52.698;6.314;2023-02-05T16:50:58;6.60;99.90
57829;DHT22;43657;52.698;6.314;2023-02-05T16:56:17;6.50;99.90
57829;DHT22;43657;52.698;6.314;2023-02-05T16:58:56;6.50;99.90
57829;DHT22;43657;52.698;6.314;2023-02-05T17:01:26;6.40;99.90
57829;DHT22;43657;52.698;6.314;2023-02-05T17:03:53;6.30;99.90
57829;DHT22;43657;52.698;6.314;2023-02-05T17:06:20;6.30;99.90
57829;DHT22;43657;52.698;6.314;2023-02-05T17:08:50;6.20;99.90
57829;DHT22;43657;52.698;6.314;2023-02-05T17:11:39;6.10;99.90
57829;DHT22;43657;52.698;6.314;2023-02-05T17:16:55;6.00;99.90
57829;DHT22;43657;52.698;6.314;2023-02-05T17:19:30;5.90;99.90
57829;DHT22;43657;52.698;6.314;2023-02-05T17:24:41;5.70;99.90
57829;DHT22;43657;52.698;6.314;2023-02-05T17:27:32;5.60;99.90
57829;DHT22;43657;52.698;6.314;2023-02-05T17:30:00;5.60;99.90
57829;DHT22;43657;52.698;6.314;2023-02-05T17:32:26;5.50;99.90
57829;DHT22;43657;52.698;6.314;2023-02-05T17:34:53;5.50;99.90
57829;DHT22;43657;52.698;6.314;2023-02-05T17:37:19;5.50;99.90
57829;DHT22;43657;52.698;6.314;2023-02-05T17:39:45;5.40;99.90
57829;DHT22;43657;52.698;6.314;2023-02-05T17:42:22;5.40;99.90
57829;DHT22;43657;52.698;6.314;2023-02-05T17:44:48;5.30;99.90
57829;DHT22;43657;52.698;6.314;2023-02-05T17:47:14;5.20;99.90
57829;DHT22;43657;52.698;6.314;2023-02-05T17:49:40;5.20;99.90
57829;DHT22;43657;52.698;6.314;2023-02-05T17:52:06;5.10;99.90
57829;DHT22;43657;52.698;6.314;2023-02-05T17:54:32;5.00;99.90
57829;DHT22;43657;52.698;6.314;2023-02-05T17:57:04;5.00;99.90
57829;DHT22;43657;52.698;6.314;2023-02-05T17:59:31;5.00;99.90
57829;DHT22;43657;52.698;6.314;2023-02-05T18:01:57;4.90;99.90
57829;DHT22;43657;52.698;6.314;2023-02-05T18:04:23;4.90;99.90
57829;DHT22;43657;52.698;6.314;2023-02-05T18:06:48;4.90;99.90
57829;DHT22;43657;52.698;6.314;2023-02-05T18:09:14;4.80;99.90
57829;DHT22;43657;52.698;6.314;2023-02-05T18:11:40;4.80;99.90
57829;DHT22;43657;52.698;6.314;2023-02-05T18:14:08;4.80;99.90
57829;DHT22;43657;52.698;6.314;2023-02-05T18:16:34;4.70;99.90
57829;DHT22;43657;52.698;6.314;2023-02-05T18:19:00;4.70;99.90
57829;DHT22;43657;52.698;6.314;2023-02-05T18:21:25;4.60;99.90
57829;DHT22;43657;52.698;6.314;2023-02-05T18:23:51;4.60;99.90
57829;DHT22;43657;52.698;6.314;2023-02-05T18:26:19;4.60;99.90
57829;DHT22;43657;52.698;6.314;2023-02-05T18:28:45;4.50;99.90
57829;DHT22;43657;52.698;6.314;2023-02-05T18:31:12;4.50;99.90
57829;DHT22;43657;52.698;6.314;2023-02-05T18:33:37;4.40;99.90
57829;DHT22;43657;52.698;6.314;2023-02-05T18:36:10;4.40;99.90
57829;DHT22;43657;52.698;6.314;2023-02-05T18:38:36;4.30;99.90
57829;DHT22;43657;52.698;6.314;2023-02-05T18:43:33;4.10;99.90
57829;DHT22;43657;52.698;6.314;2023-02-05T18:46:08;4.10;99.90
57829;DHT22;43657;52.698;6.314;2023-02-05T18:48:34;4.00;99.90
57829;DHT22;43657;52.698;6.314;2023-02-05T18:51:05;4.00;99.90
57829;DHT22;43657;52.698;6.314;2023-02-05T18:53:32;3.90;99.90
57829;DHT22;43657;52.698;6.314;2023-02-05T18:56:00;3.90;99.90